sensor_id;sensor_type;location;lat;lon;timestamp;temperature;humidity
33699;DHT22;20032;52.436;13.312;2022-08-14T00:01:04;21.70;99.90
33699;DHT22;20032;52.436;13.312;2022-08-14T00:03:30;21.80;99.90
33699;DHT22;20032;52.436;13.312;2022-08-14T00:05:57;21.80;99.90
33699;DHT22;20032;52.436;13.312;2022-08-14T00:08:23;21.70;99.90
33699;DHT22;20032;52.436;13.312;2022-08-14T00:10:48;21.70;99.90
33699;DHT22;20032;52.436;13.312;2022-08-14T00:13:14;21.70;99.90
33699;DHT22;20032;52.436;13.312;2022-08-14T00:15:41;21.60;99.90
33699;DHT22;20032;52.436;13.312;2022-08-14T00:18:08;21.60;99.90
33699;DHT22;20032;52.436;13.312;2022-08-14T00:20:35;21.70;99.90
33699;DHT22;20032;52.436;13.312;2022-08-14T00:23:01;21.70;99.90
33699;DHT22;20032;52.436;13.312;2022-08-14T00:25:27;21.70;99.90
33699;DHT22;20032;52.436;13.312;2022-08-14T00:27:52;21.60;99.90
33699;DHT22;20032;52.436;13.312;2022-08-14T00:30:18;21.60;99.90
33699;DHT22;20032;52.436;13.312;2022-08-14T00:32:43;21.60;99.90
33699;DHT22;20032;52.436;13.312;2022-08-14T00:35:09;21.60;99.90
33699;DHT22;20032;52.436;13.312;2022-08-14T00:37:36;21.60;99.90
33699;DHT22;20032;52.436;13.312;2022-08-14T00:40:02;21.60;99.90
33699;DHT22;20032;52.436;13.312;2022-08-14T00:42:28;21.60;99.90
33699;DHT22;20032;52.436;13.312;2022-08-14T00:44:55;21.50;99.90
33699;DHT22;20032;52.436;13.312;2022-08-14T00:47:20;21.50;99.90
33699;DHT22;20032;52.436;13.312;2022-08-14T00:49:49;21.40;99.90
33699;DHT22;20032;52.436;13.312;2022-08-14T00:52:15;21.50;99.90
33699;DHT22;20032;52.436;13.312;2022-08-14T00:54:41;21.50;99.90
33699;DHT22;20032;52.436;13.312;2022-08-14T00:57:06;21.50;99.90
33699;DHT22;20032;52.436;13.312;2022-08-14T00:59:32;21.50;99.90
33699;DHT22;20032;52.436;13.312;2022-08-14T01:02:00;21.60;99.90
33699;DHT22;20032;52.436;13.312;2022-08-14T01:04:26;21.60;99.90
33699;DHT22;20032;52.436;13.312;2022-08-14T01:06:53;21.50;99.90
33699;DHT22;20032;52.436;13.312;2022-08-14T01:09:18;21.40;99.90
33699;DHT22;20032;52.436;13.312;2022-08-14T01:11:48;21.30;99.90
33699;DHT22;20032;52.436;13.312;2022-08-14T01:14:14;21.20;99.90
33699;DHT22;20032;52.436;13.312;2022-08-14T01:16:40;21.20;99.90
33699;DHT22;20032;52.436;13.312;2022-08-14T01:19:05;21.20;99.90
33699;DHT22;20032;52.436;13.312;2022-08-14T01:21:51;21.10;99.90
33699;DHT22;20032;52.436;13.312;2022-08-14T01:24:16;21.10;99.90
33699;DHT22;20032;52.436;13.312;2022-08-14T01:26:42;21.10;99.90
33699;DHT22;20032;52.436;13.312;2022-08-14T01:29:07;21.10;99.90
33699;DHT22;20032;52.436;13.312;2022-08-14T01:31:34;21.10;99.90
33699;DHT22;20032;52.436;13.312;2022-08-14T01:34:04;21.00;99.90
33699;DHT22;20032;52.436;13.312;2022-08-14T01:36:30;21.00;99.90
33699;DHT22;20032;52.436;13.312;2022-08-14T01:39:10;20.90;99.90
33699;DHT22;20032;52.436;13.312;2022-08-14T01:41:36;20.90;99.90
33699;DHT22;20032;52.436;13.312;2022-08-14T01:44:04;20.90;99.90
33699;DHT22;20032;52.436;13.312;2022-08-14T01:46:32;20.90;99.90
33699;DHT22;20032;52.436;13.312;2022-08-14T01:48:58;21.00;99.90
33699;DHT22;20032;52.436;13.312;2022-08-14T01:51:24;21.00;99.90
33699;DHT22;20032;52.436;13.312;2022-08-14T01:53:51;21.00;99.90
33699;DHT22;20032;52.436;13.312;2022-08-14T01:56:19;21.00;99.90
33699;DHT22;20032;52.436;13.312;2022-08-14T01:58:45;21.00;99.90
33699;DHT22;20032;52.436;13.312;2022-08-14T02:01:16;21.00;99.90
33699;DHT22;20032;52.436;13.312;2022-08-14T02:03:41;21.00;99.90
33699;DHT22;20032;52.436;13.312;2022-08-14T02:06:07;21.00;99.90
33699;DHT22;20032;52.436;13.312;2022-08-14T02:08:32;21.00;99.90
33699;DHT22;20032;52.436;13.312;2022-08-14T02:11:02;21.00;99.90
33699;DHT22;20032;52.436;13.312;2022-08-14T02:13:47;21.00;99.90
33699;DHT22;20032;52.436;13.312;2022-08-14T02:16:15;21.10;99.90
33699;DHT22;20032;52.436;13.312;2022-08-14T02:18:42;21.00;99.90
33699;DHT22;20032;52.436;13.312;2022-08-14T02:21:07;21.00;99.90
33699;DHT22;20032;52.436;13.312;2022-08-14T02:23:33;21.00;99.90
33699;DHT22;20032;52.436;13.312;2022-08-14T02:25:59;20.90;99.90
33699;DHT22;20032;52.436;13.312;2022-08-14T02:28:26;20.90;99.90
33699;DHT22;20032;52.436;13.312;2022-08-14T02:30:54;20.80;99.90
33699;DHT22;20032;52.436;13.312;2022-08-14T02:33:20;20.80;99.90
33699;DHT22;20032;52.436;13.312;2022-08-14T02:35:46;20.90;99.90
33699;DHT22;20032;52.436;13.312;2022-08-14T02:38:12;20.90;99.90
33699;DHT22;20032;52.436;13.312;2022-08-14T02:40:37;20.90;99.90
33699;DHT22;20032;52.436;13.312;2022-08-14T02:43:03;20.90;99.90
33699;DHT22;20032;52.436;13.312;2022-08-14T02:45:29;21.00;99.90
33699;DHT22;20032;52.436;13.312;2022-08-14T02:47:58;21.10;99.90
33699;DHT22;20032;52.436;13.312;2022-08-14T02:50:24;21.10;99.90
33699;DHT22;20032;52.436;13.312;2022-08-14T02:52:49;21.10;99.90
33699;DHT22;20032;52.436;13.312;2022-08-14T02:55:15;21.10;99.90
33699;DHT22;20032;52.436;13.312;2022-08-14T02:57:40;21.00;99.90
33699;DHT22;20032;52.436;13.312;2022-08-14T03:00:08;20.90;99.90
33699;DHT22;20032;52.436;13.312;2022-08-14T03:02:34;20.90;99.90
33699;DHT22;20032;52.436;13.312;2022-08-14T03:04:59;21.00;99.90
33699;DHT22;20032;52.436;13.312;2022-08-14T03:07:25;21.00;99.90
33699;DHT22;20032;52.436;13.312;2022-08-14T03:09:50;20.90;99.90
33699;DHT22;20032;52.436;13.312;2022-08-14T03:12:15;21.00;99.90
33699;DHT22;20032;52.436;13.312;2022-08-14T03:14:41;21.00;99.90
33699;DHT22;20032;52.436;13.312;2022-08-14T03:17:13;21.00;99.90
33699;DHT22;20032;52.436;13.312;2022-08-14T03:19:40;21.00;99.90
33699;DHT22;20032;52.436;13.312;2022-08-14T03:22:05;21.10;99.90
33699;DHT22;20032;52.436;13.312;2022-08-14T03:24:31;21.10;99.90
33699;DHT22;20032;52.436;13.312;2022-08-14T03:26:56;21.10;99.90
33699;DHT22;20032;52.436;13.312;2022-08-14T03:29:22;21.10;99.90
33699;DHT22;20032;52.436;13.312;2022-08-14T03:31:47;21.10;99.90
33699;DHT22;20032;52.436;13.312;2022-08-14T03:34:16;21.10;99.90
33699;DHT22;20032;52.436;13.312;2022-08-14T03:36:41;21.10;99.90
33699;DHT22;20032;52.436;13.312;2022-08-14T03:39:09;21.00;99.90
33699;DHT22;20032;52.436;13.312;2022-08-14T03:41:35;20.90;99.90
33699;DHT22;20032;52.436;13.312;2022-08-14T03:44:01;20.80;99.90
33699;DHT22;20032;52.436;13.312;2022-08-14T03:46:28;20.90;99.90
33699;DHT22;20032;52.436;13.312;2022-08-14T03:48:54;20.90;99.90
33699;DHT22;20032;52.436;13.312;2022-08-14T03:51:20;20.70;99.90
33699;DHT22;20032;52.436;13.312;2022-08-14T03:53:46;20.60;99.90
33699;DHT22;20032;52.436;13.312;2022-08-14T03:56:13;20.60;99.90
33699;DHT22;20032;52.436;13.312;2022-08-14T03:58:40;20.70;99.90
33699;DHT22;20032;52.436;13.312;2022-08-14T04:01:06;20.80;99.90
33699;DHT22;20032;52.436;13.312;2022-08-14T04:03:32;20.90;99.90
33699;DHT22;20032;52.436;13.312;2022-08-14T04:05:58;20.90;99.90
33699;DHT22;20032;52.436;13.312;2022-08-14T04:08:23;20.90;99.90
33699;DHT22;20032;52.436;13.312;2022-08-14T04:10:49;20.90;99.90
33699;DHT22;20032;52.436;13.312;2022-08-14T04:13:14;20.90;99.90
33699;DHT22;20032;52.436;13.312;2022-08-14T04:15:43;20.90;99.90
33699;DHT22;20032;52.436;13.312;2022-08-14T04:18:08;20.90;99.90
33699;DHT22;20032;52.436;13.312;2022-08-14T04:20:34;21.00;99.90
33699;DHT22;20032;52.436;13.312;2022-08-14T04:23:00;21.00;99.90
33699;DHT22;20032;52.436;13.312;2022-08-14T04:25:26;21.00;99.90
33699;DHT22;20032;52.436;13.312;2022-08-14T04:27:51;21.00;99.90
33699;DHT22;20032;52.436;13.312;2022-08-14T04:30:16;20.90;99.90
33699;DHT22;20032;52.436;13.312;2022-08-14T04:32:42;20.90;99.90
33699;DHT22;20032;52.436;13.312;2022-08-14T04:35:08;21.00;99.90
33699;DHT22;20032;52.436;13.312;2022-08-14T04:37:34;21.10;99.90
33699;DHT22;20032;52.436;13.312;2022-08-14T04:40:20;21.10;99.90
33699;DHT22;20032;52.436;13.312;2022-08-14T04:43:05;21.00;99.90
33699;DHT22;20032;52.436;13.312;2022-08-14T04:45:51;21.00;99.90
33699;DHT22;20032;52.436;13.312;2022-08-14T04:48:17;21.10;99.90
33699;DHT22;20032;52.436;13.312;2022-08-14T04:50:46;21.10;99.90
33699;DHT22;20032;52.436;13.312;2022-08-14T04:53:13;21.10;99.90
33699;DHT22;20032;52.436;13.312;2022-08-14T04:55:39;21.20;99.90
33699;DHT22;20032;52.436;13.312;2022-08-14T04:58:05;21.20;99.90
33699;DHT22;20032;52.436;13.312;2022-08-14T05:00:30;21.20;99.90
33699;DHT22;20032;52.436;13.312;2022-08-14T05:02:56;21.10;99.90
33699;DHT22;20032;52.436;13.312;2022-08-14T05:05:22;21.10;99.90
33699;DHT22;20032;52.436;13.312;2022-08-14T05:07:49;21.20;99.90
33699;DHT22;20032;52.436;13.312;2022-08-14T05:10:15;21.20;99.90
33699;DHT22;20032;52.436;13.312;2022-08-14T05:12:40;21.30;99.90
33699;DHT22;20032;52.436;13.312;2022-08-14T05:15:06;21.30;99.90
33699;DHT22;20032;52.436;13.312;2022-08-14T05:17:32;21.20;99.90
33699;DHT22;20032;52.436;13.312;2022-08-14T05:19:58;21.20;99.90
33699;DHT22;20032;52.436;13.312;2022-08-14T05:22:23;21.30;99.90
33699;DHT22;20032;52.436;13.312;2022-08-14T05:24:48;21.40;99.90
33699;DHT22;20032;52.436;13.312;2022-08-14T05:27:14;21.50;99.90
33699;DHT22;20032;52.436;13.312;2022-08-14T05:29:40;21.50;99.90
33699;DHT22;20032;52.436;13.312;2022-08-14T05:32:09;21.60;99.90
33699;DHT22;20032;52.436;13.312;2022-08-14T05:34:34;21.70;99.90
33699;DHT22;20032;52.436;13.312;2022-08-14T05:37:00;21.80;99.90
33699;DHT22;20032;52.436;13.312;2022-08-14T05:39:26;21.80;99.90
33699;DHT22;20032;52.436;13.312;2022-08-14T05:41:52;21.90;99.90
33699;DHT22;20032;52.436;13.312;2022-08-14T05:44:17;21.90;99.90
33699;DHT22;20032;52.436;13.312;2022-08-14T05:46:43;22.00;99.90
33699;DHT22;20032;52.436;13.312;2022-08-14T05:49:08;22.00;99.90
33699;DHT22;20032;52.436;13.312;2022-08-14T05:51:34;22.10;99.90
33699;DHT22;20032;52.436;13.312;2022-08-14T05:54:00;22.20;99.90
33699;DHT22;20032;52.436;13.312;2022-08-14T05:56:25;22.30;99.90
33699;DHT22;20032;52.436;13.312;2022-08-14T05:58:51;22.40;99.90
33699;DHT22;20032;52.436;13.312;2022-08-14T06:01:16;22.50;99.90
33699;DHT22;20032;52.436;13.312;2022-08-14T06:03:42;22.50;99.90
33699;DHT22;20032;52.436;13.312;2022-08-14T06:06:08;22.60;99.90
33699;DHT22;20032;52.436;13.312;2022-08-14T06:08:33;22.60;99.90
33699;DHT22;20032;52.436;13.312;2022-08-14T06:11:00;22.60;99.90
33699;DHT22;20032;52.436;13.312;2022-08-14T06:13:29;22.70;99.90
33699;DHT22;20032;52.436;13.312;2022-08-14T06:15:55;22.70;99.90
33699;DHT22;20032;52.436;13.312;2022-08-14T06:18:20;22.80;99.90
33699;DHT22;20032;52.436;13.312;2022-08-14T06:20:46;22.90;99.90
33699;DHT22;20032;52.436;13.312;2022-08-14T06:23:11;22.90;99.90
33699;DHT22;20032;52.436;13.312;2022-08-14T06:25:36;22.90;99.90
33699;DHT22;20032;52.436;13.312;2022-08-14T06:28:02;23.00;99.90
33699;DHT22;20032;52.436;13.312;2022-08-14T06:30:28;23.00;99.90
33699;DHT22;20032;52.436;13.312;2022-08-14T06:32:54;23.00;99.90
33699;DHT22;20032;52.436;13.312;2022-08-14T06:35:20;23.10;99.90
33699;DHT22;20032;52.436;13.312;2022-08-14T06:37:48;23.10;99.90
33699;DHT22;20032;52.436;13.312;2022-08-14T06:40:16;23.20;99.90
33699;DHT22;20032;52.436;13.312;2022-08-14T06:42:43;23.30;99.90
33699;DHT22;20032;52.436;13.312;2022-08-14T06:45:08;23.40;99.90
33699;DHT22;20032;52.436;13.312;2022-08-14T06:47:35;23.50;99.90
33699;DHT22;20032;52.436;13.312;2022-08-14T06:50:03;23.50;99.90
33699;DHT22;20032;52.436;13.312;2022-08-14T06:52:29;23.60;99.90
33699;DHT22;20032;52.436;13.312;2022-08-14T06:54:54;23.70;99.90
33699;DHT22;20032;52.436;13.312;2022-08-14T06:57:21;23.70;99.90
33699;DHT22;20032;52.436;13.312;2022-08-14T06:59:46;23.80;99.90
33699;DHT22;20032;52.436;13.312;2022-08-14T07:02:12;23.80;99.90
33699;DHT22;20032;52.436;13.312;2022-08-14T07:04:57;23.80;99.90
33699;DHT22;20032;52.436;13.312;2022-08-14T07:07:42;23.90;99.90
33699;DHT22;20032;52.436;13.312;2022-08-14T07:10:08;24.00;99.90
33699;DHT22;20032;52.436;13.312;2022-08-14T07:12:34;24.00;99.90
33699;DHT22;20032;52.436;13.312;2022-08-14T07:15:00;24.10;99.90
33699;DHT22;20032;52.436;13.312;2022-08-14T07:17:25;24.10;99.90
33699;DHT22;20032;52.436;13.312;2022-08-14T07:19:51;24.10;99.90
33699;DHT22;20032;52.436;13.312;2022-08-14T07:22:17;24.20;99.90
33699;DHT22;20032;52.436;13.312;2022-08-14T07:24:42;24.20;99.90
33699;DHT22;20032;52.436;13.312;2022-08-14T07:27:08;24.30;99.90
33699;DHT22;20032;52.436;13.312;2022-08-14T07:29:33;24.50;99.90
33699;DHT22;20032;52.436;13.312;2022-08-14T07:31:59;24.60;99.90
33699;DHT22;20032;52.436;13.312;2022-08-14T07:34:24;24.70;99.90
33699;DHT22;20032;52.436;13.312;2022-08-14T07:36:49;24.80;99.90
33699;DHT22;20032;52.436;13.312;2022-08-14T07:39:15;24.80;99.90
33699;DHT22;20032;52.436;13.312;2022-08-14T07:41:40;24.90;99.90
33699;DHT22;20032;52.436;13.312;2022-08-14T07:44:07;24.90;99.90
33699;DHT22;20032;52.436;13.312;2022-08-14T07:46:35;25.00;99.90
33699;DHT22;20032;52.436;13.312;2022-08-14T07:49:01;25.00;99.90
33699;DHT22;20032;52.436;13.312;2022-08-14T07:51:26;25.10;99.90
33699;DHT22;20032;52.436;13.312;2022-08-14T07:53:52;25.10;99.90
33699;DHT22;20032;52.436;13.312;2022-08-14T07:56:17;25.20;99.90
33699;DHT22;20032;52.436;13.312;2022-08-14T07:58:43;25.30;99.90
33699;DHT22;20032;52.436;13.312;2022-08-14T08:01:08;25.40;99.90
33699;DHT22;20032;52.436;13.312;2022-08-14T08:03:35;25.40;99.90
33699;DHT22;20032;52.436;13.312;2022-08-14T08:06:02;25.50;99.90
33699;DHT22;20032;52.436;13.312;2022-08-14T08:08:28;25.60;99.90
33699;DHT22;20032;52.436;13.312;2022-08-14T08:10:54;25.70;99.90
33699;DHT22;20032;52.436;13.312;2022-08-14T08:13:20;25.80;99.90
33699;DHT22;20032;52.436;13.312;2022-08-14T08:15:47;25.80;99.90
33699;DHT22;20032;52.436;13.312;2022-08-14T08:18:14;25.90;99.90
33699;DHT22;20032;52.436;13.312;2022-08-14T08:20:40;26.10;99.90
33699;DHT22;20032;52.436;13.312;2022-08-14T08:23:06;26.20;99.90
33699;DHT22;20032;52.436;13.312;2022-08-14T08:25:33;26.40;99.90
33699;DHT22;20032;52.436;13.312;2022-08-14T08:28:01;26.50;99.90
33699;DHT22;20032;52.436;13.312;2022-08-14T08:30:29;26.60;99.90
33699;DHT22;20032;52.436;13.312;2022-08-14T08:32:55;26.70;99.90
33699;DHT22;20032;52.436;13.312;2022-08-14T08:35:22;26.70;99.90
33699;DHT22;20032;52.436;13.312;2022-08-14T08:37:48;26.90;99.90
33699;DHT22;20032;52.436;13.312;2022-08-14T08:40:46;27.00;99.90
33699;DHT22;20032;52.436;13.312;2022-08-14T08:43:02;27.00;99.90
33699;DHT22;20032;52.436;13.312;2022-08-14T08:45:28;27.10;99.90
33699;DHT22;20032;52.436;13.312;2022-08-14T08:47:53;27.20;99.90
33699;DHT22;20032;52.436;13.312;2022-08-14T08:52:48;27.30;99.90
33699;DHT22;20032;52.436;13.312;2022-08-14T08:55:14;27.30;99.90
33699;DHT22;20032;52.436;13.312;2022-08-14T08:57:39;27.30;99.90
33699;DHT22;20032;52.436;13.312;2022-08-14T09:00:11;27.40;99.90
33699;DHT22;20032;52.436;13.312;2022-08-14T09:02:36;27.60;99.90
33699;DHT22;20032;52.436;13.312;2022-08-14T09:05:06;27.70;99.90
33699;DHT22;20032;52.436;13.312;2022-08-14T09:07:32;27.80;99.90
33699;DHT22;20032;52.436;13.312;2022-08-14T09:09:57;27.80;99.90
33699;DHT22;20032;52.436;13.312;2022-08-14T09:12:22;27.90;99.90
33699;DHT22;20032;52.436;13.312;2022-08-14T09:14:48;28.00;99.90
33699;DHT22;20032;52.436;13.312;2022-08-14T09:17:17;28.00;99.90
33699;DHT22;20032;52.436;13.312;2022-08-14T09:19:42;28.10;99.90
33699;DHT22;20032;52.436;13.312;2022-08-14T09:22:08;28.20;99.90
33699;DHT22;20032;52.436;13.312;2022-08-14T09:24:35;28.30;99.90
33699;DHT22;20032;52.436;13.312;2022-08-14T09:27:00;28.40;99.90
33699;DHT22;20032;52.436;13.312;2022-08-14T09:29:26;28.40;99.90
33699;DHT22;20032;52.436;13.312;2022-08-14T09:31:52;28.40;99.90
33699;DHT22;20032;52.436;13.312;2022-08-14T09:37:52;28.40;99.90
33699;DHT22;20032;52.436;13.312;2022-08-14T09:39:37;28.50;99.90
33699;DHT22;20032;52.436;13.312;2022-08-14T09:45:37;28.50;99.10
33699;DHT22;20032;52.436;13.312;2022-08-14T09:47:18;28.60;99.40
33699;DHT22;20032;52.436;13.312;2022-08-14T09:49:44;28.60;98.80
33699;DHT22;20032;52.436;13.312;2022-08-14T09:52:11;28.60;98.40
33699;DHT22;20032;52.436;13.312;2022-08-14T09:54:41;28.70;98.30
33699;DHT22;20032;52.436;13.312;2022-08-14T09:57:08;28.80;97.90
33699;DHT22;20032;52.436;13.312;2022-08-14T09:59:43;29.00;98.70
33699;DHT22;20032;52.436;13.312;2022-08-14T10:03:11;29.20;97.70
33699;DHT22;20032;52.436;13.312;2022-08-14T10:05:04;29.30;98.10
33699;DHT22;20032;52.436;13.312;2022-08-14T10:07:31;29.50;97.60
33699;DHT22;20032;52.436;13.312;2022-08-14T10:09:57;29.60;96.50
33699;DHT22;20032;52.436;13.312;2022-08-14T10:12:23;29.80;96.70
33699;DHT22;20032;52.436;13.312;2022-08-14T10:14:49;30.00;96.30
33699;DHT22;20032;52.436;13.312;2022-08-14T10:17:20;30.20;95.50
33699;DHT22;20032;52.436;13.312;2022-08-14T10:19:48;30.30;94.40
33699;DHT22;20032;52.436;13.312;2022-08-14T10:22:14;30.30;94.20
33699;DHT22;20032;52.436;13.312;2022-08-14T10:24:40;30.30;94.00
33699;DHT22;20032;52.436;13.312;2022-08-14T10:29:43;30.70;93.70
33699;DHT22;20032;52.436;13.312;2022-08-14T10:32:11;30.90;93.60
33699;DHT22;20032;52.436;13.312;2022-08-14T10:34:38;31.00;92.50
33699;DHT22;20032;52.436;13.312;2022-08-14T10:37:05;31.30;92.40
33699;DHT22;20032;52.436;13.312;2022-08-14T10:39:31;31.30;91.60
33699;DHT22;20032;52.436;13.312;2022-08-14T10:41:59;31.10;91.90
33699;DHT22;20032;52.436;13.312;2022-08-14T10:44:30;30.90;92.00
33699;DHT22;20032;52.436;13.312;2022-08-14T10:46:56;30.70;91.90
33699;DHT22;20032;52.436;13.312;2022-08-14T10:49:27;30.50;91.90
33699;DHT22;20032;52.436;13.312;2022-08-14T10:52:02;30.70;92.70
33699;DHT22;20032;52.436;13.312;2022-08-14T10:54:31;31.20;90.30
33699;DHT22;20032;52.436;13.312;2022-08-14T10:57:09;31.40;89.20
33699;DHT22;20032;52.436;13.312;2022-08-14T10:59:52;31.80;89.10
33699;DHT22;20032;52.436;13.312;2022-08-14T11:02:19;32.10;87.90
33699;DHT22;20032;52.436;13.312;2022-08-14T11:04:56;32.60;85.40
33699;DHT22;20032;52.436;13.312;2022-08-14T11:07:21;32.60;86.00
33699;DHT22;20032;52.436;13.312;2022-08-14T11:09:55;32.90;83.80
33699;DHT22;20032;52.436;13.312;2022-08-14T11:12:22;33.00;84.10
33699;DHT22;20032;52.436;13.312;2022-08-14T11:14:49;33.00;82.20
33699;DHT22;20032;52.436;13.312;2022-08-14T11:17:15;33.10;81.80
33699;DHT22;20032;52.436;13.312;2022-08-14T11:19:40;33.30;81.00
33699;DHT22;20032;52.436;13.312;2022-08-14T11:22:06;33.60;79.80
33699;DHT22;20032;52.436;13.312;2022-08-14T11:24:32;33.80;81.10
33699;DHT22;20032;52.436;13.312;2022-08-14T11:26:57;34.00;78.70
33699;DHT22;20032;52.436;13.312;2022-08-14T11:29:23;34.40;77.30
33699;DHT22;20032;52.436;13.312;2022-08-14T11:31:49;34.30;77.00
33699;DHT22;20032;52.436;13.312;2022-08-14T11:34:15;34.20;78.10
33699;DHT22;20032;52.436;13.312;2022-08-14T11:36:41;34.00;77.00
33699;DHT22;20032;52.436;13.312;2022-08-14T11:39:08;34.10;77.40
33699;DHT22;20032;52.436;13.312;2022-08-14T11:41:41;34.20;75.80
33699;DHT22;20032;52.436;13.312;2022-08-14T11:44:07;34.40;75.10
33699;DHT22;20032;52.436;13.312;2022-08-14T11:46:32;34.50;74.70
33699;DHT22;20032;52.436;13.312;2022-08-14T11:48:58;34.70;74.10
33699;DHT22;20032;52.436;13.312;2022-08-14T11:51:26;34.80;72.70
33699;DHT22;20032;52.436;13.312;2022-08-14T11:53:55;34.90;72.10
33699;DHT22;20032;52.436;13.312;2022-08-14T11:56:21;34.70;72.00
33699;DHT22;20032;52.436;13.312;2022-08-14T11:58:49;34.40;72.90
33699;DHT22;20032;52.436;13.312;2022-08-14T12:01:15;34.60;73.20
33699;DHT22;20032;52.436;13.312;2022-08-14T12:03:41;34.90;71.80
33699;DHT22;20032;52.436;13.312;2022-08-14T12:06:09;35.10;70.60
33699;DHT22;20032;52.436;13.312;2022-08-14T12:08:35;34.90;69.00
33699;DHT22;20032;52.436;13.312;2022-08-14T12:11:01;35.10;69.80
33699;DHT22;20032;52.436;13.312;2022-08-14T12:13:29;35.60;68.90
33699;DHT22;20032;52.436;13.312;2022-08-14T12:15:57;35.50;68.70
33699;DHT22;20032;52.436;13.312;2022-08-14T12:18:31;35.90;69.30
33699;DHT22;20032;52.436;13.312;2022-08-14T12:20:57;36.20;68.10
33699;DHT22;20032;52.436;13.312;2022-08-14T12:23:23;36.80;67.40
33699;DHT22;20032;52.436;13.312;2022-08-14T12:25:49;36.50;66.80
33699;DHT22;20032;52.436;13.312;2022-08-14T12:28:14;36.40;65.20
33699;DHT22;20032;52.436;13.312;2022-08-14T12:30:42;36.00;66.50
33699;DHT22;20032;52.436;13.312;2022-08-14T12:33:25;35.80;66.00
33699;DHT22;20032;52.436;13.312;2022-08-14T12:35:52;36.10;67.20
33699;DHT22;20032;52.436;13.312;2022-08-14T12:38:17;36.80;64.80
33699;DHT22;20032;52.436;13.312;2022-08-14T12:40:45;37.10;64.50
33699;DHT22;20032;52.436;13.312;2022-08-14T12:43:11;37.00;64.50
33699;DHT22;20032;52.436;13.312;2022-08-14T12:45:37;36.30;64.60
33699;DHT22;20032;52.436;13.312;2022-08-14T12:48:03;36.30;65.50
33699;DHT22;20032;52.436;13.312;2022-08-14T12:50:37;36.60;65.30
33699;DHT22;20032;52.436;13.312;2022-08-14T12:53:03;37.10;64.10
33699;DHT22;20032;52.436;13.312;2022-08-14T12:55:29;37.30;63.40
33699;DHT22;20032;52.436;13.312;2022-08-14T12:57:59;38.00;62.20
33699;DHT22;20032;52.436;13.312;2022-08-14T13:00:26;38.20;61.60
33699;DHT22;20032;52.436;13.312;2022-08-14T13:02:53;38.10;60.30
33699;DHT22;20032;52.436;13.312;2022-08-14T13:05:19;36.70;61.80
33699;DHT22;20032;52.436;13.312;2022-08-14T13:07:46;35.60;64.10
33699;DHT22;20032;52.436;13.312;2022-08-14T13:10:13;35.00;66.00
33699;DHT22;20032;52.436;13.312;2022-08-14T13:12:39;35.20;66.30
33699;DHT22;20032;52.436;13.312;2022-08-14T13:15:06;36.10;63.70
33699;DHT22;20032;52.436;13.312;2022-08-14T13:17:32;37.00;62.80
33699;DHT22;20032;52.436;13.312;2022-08-14T13:20:00;38.00;61.70
33699;DHT22;20032;52.436;13.312;2022-08-14T13:22:26;38.50;59.60
33699;DHT22;20032;52.436;13.312;2022-08-14T13:24:53;38.40;58.50
33699;DHT22;20032;52.436;13.312;2022-08-14T13:27:22;38.60;59.10
33699;DHT22;20032;52.436;13.312;2022-08-14T13:29:49;37.90;58.70
33699;DHT22;20032;52.436;13.312;2022-08-14T13:32:15;36.70;61.70
33699;DHT22;20032;52.436;13.312;2022-08-14T13:34:42;36.50;60.20
33699;DHT22;20032;52.436;13.312;2022-08-14T13:37:09;36.20;61.80
33699;DHT22;20032;52.436;13.312;2022-08-14T13:39:34;36.10;62.70
33699;DHT22;20032;52.436;13.312;2022-08-14T13:42:02;36.50;59.90
33699;DHT22;20032;52.436;13.312;2022-08-14T13:44:29;36.70;59.70
33699;DHT22;20032;52.436;13.312;2022-08-14T13:47:00;36.80;58.60
33699;DHT22;20032;52.436;13.312;2022-08-14T13:49:31;37.00;58.80
33699;DHT22;20032;52.436;13.312;2022-08-14T13:51:57;36.40;58.70
33699;DHT22;20032;52.436;13.312;2022-08-14T13:54:25;36.50;59.10
33699;DHT22;20032;52.436;13.312;2022-08-14T13:56:54;36.50;58.90
33699;DHT22;20032;52.436;13.312;2022-08-14T13:59:22;36.80;59.40
33699;DHT22;20032;52.436;13.312;2022-08-14T14:01:48;37.00;57.80
33699;DHT22;20032;52.436;13.312;2022-08-14T14:04:14;36.70;58.00
33699;DHT22;20032;52.436;13.312;2022-08-14T14:06:42;36.20;57.00
33699;DHT22;20032;52.436;13.312;2022-08-14T14:09:08;35.80;58.20
33699;DHT22;20032;52.436;13.312;2022-08-14T14:11:34;35.50;58.80
33699;DHT22;20032;52.436;13.312;2022-08-14T14:14:00;35.30;59.40
33699;DHT22;20032;52.436;13.312;2022-08-14T14:16:25;35.10;59.50
33699;DHT22;20032;52.436;13.312;2022-08-14T14:18:51;35.00;58.10
33699;DHT22;20032;52.436;13.312;2022-08-14T14:21:21;34.70;58.30
33699;DHT22;20032;52.436;13.312;2022-08-14T14:23:48;34.80;57.80
33699;DHT22;20032;52.436;13.312;2022-08-14T14:26:14;35.40;55.50
33699;DHT22;20032;52.436;13.312;2022-08-14T14:28:40;35.50;54.50
33699;DHT22;20032;52.436;13.312;2022-08-14T14:31:07;35.20;54.60
33699;DHT22;20032;52.436;13.312;2022-08-14T14:33:33;34.70;55.90
33699;DHT22;20032;52.436;13.312;2022-08-14T14:35:58;34.40;56.60
33699;DHT22;20032;52.436;13.312;2022-08-14T14:38:25;34.30;56.60
33699;DHT22;20032;52.436;13.312;2022-08-14T14:40:54;34.30;56.60
33699;DHT22;20032;52.436;13.312;2022-08-14T14:43:20;34.20;57.50
33699;DHT22;20032;52.436;13.312;2022-08-14T14:45:46;34.10;57.40
33699;DHT22;20032;52.436;13.312;2022-08-14T14:48:14;34.20;57.30
33699;DHT22;20032;52.436;13.312;2022-08-14T14:50:41;34.00;57.10
33699;DHT22;20032;52.436;13.312;2022-08-14T14:53:07;34.00;57.40
33699;DHT22;20032;52.436;13.312;2022-08-14T14:55:35;34.10;54.90
33699;DHT22;20032;52.436;13.312;2022-08-14T14:58:02;34.50;54.30
33699;DHT22;20032;52.436;13.312;2022-08-14T15:00:27;34.80;52.50
33699;DHT22;20032;52.436;13.312;2022-08-14T15:02:53;35.20;52.80
33699;DHT22;20032;52.436;13.312;2022-08-14T15:05:19;35.10;52.50
33699;DHT22;20032;52.436;13.312;2022-08-14T15:07:45;34.80;53.00
33699;DHT22;20032;52.436;13.312;2022-08-14T15:10:12;34.50;54.10
33699;DHT22;20032;52.436;13.312;2022-08-14T15:12:38;34.20;53.70
33699;DHT22;20032;52.436;13.312;2022-08-14T15:15:04;34.60;53.90
33699;DHT22;20032;52.436;13.312;2022-08-14T15:17:30;35.40;53.10
33699;DHT22;20032;52.436;13.312;2022-08-14T15:20:02;35.40;52.00
33699;DHT22;20032;52.436;13.312;2022-08-14T15:22:28;35.60;51.80
33699;DHT22;20032;52.436;13.312;2022-08-14T15:24:54;36.00;50.50